createdAt,value
2018-12-25T00:00:17.377Z,3.70
2018-12-25T00:05:12.875Z,3.70
2018-12-25T00:10:08.826Z,3.70
2018-12-25T00:15:04.308Z,3.80
2018-12-25T00:19:59.883Z,3.80
2018-12-25T00:24:55.339Z,3.80
2018-12-25T00:29:50.818Z,3.80
2018-12-25T00:34:46.295Z,3.80
2018-12-25T00:39:41.940Z,3.80
2018-12-25T00:44:38.583Z,3.80
2018-12-25T00:49:35.127Z,3.80
2018-12-25T00:54:30.763Z,3.80
2018-12-25T00:59:26.785Z,3.70
2018-12-25T01:04:22.520Z,3.70
2018-12-25T01:09:18.296Z,3.60
2018-12-25T01:14:14.054Z,3.50
2018-12-25T01:19:09.523Z,3.50
2018-12-25T01:24:05.018Z,3.50
2018-12-25T01:29:00.577Z,3.50
2018-12-25T01:33:56.195Z,3.60
2018-12-25T01:38:51.684Z,3.70
2018-12-25T01:43:47.265Z,3.70
2018-12-25T01:48:42.755Z,3.80
2018-12-25T01:53:38.418Z,3.80
2018-12-25T01:58:34.137Z,3.80
2018-12-25T02:03:29.611Z,3.90
2018-12-25T02:08:25.263Z,3.90
2018-12-25T02:13:20.748Z,3.90
2018-12-25T02:18:16.429Z,3.90
2018-12-25T02:23:12.123Z,3.90
2018-12-25T02:28:07.737Z,3.90
2018-12-25T02:33:03.237Z,3.90
2018-12-25T02:37:58.917Z,3.90
2018-12-25T02:42:54.554Z,3.90
2018-12-25T02:47:50.196Z,4.00
2018-12-25T02:52:45.738Z,4.00
2018-12-25T02:57:41.221Z,4.10
2018-12-25T03:02:36.932Z,4.10
2018-12-25T03:07:32.402Z,4.00
2018-12-25T03:12:28.010Z,4.10
2018-12-25T03:17:23.624Z,4.10
2018-12-25T03:22:19.207Z,4.10
2018-12-25T03:27:15.065Z,4.20
2018-12-25T03:32:12.245Z,4.10
2018-12-25T03:37:07.945Z,4.10
2018-12-25T03:42:03.483Z,4.10
2018-12-25T03:46:59.043Z,4.10
2018-12-25T03:51:54.562Z,4.10
2018-12-25T03:56:50.043Z,4.10
2018-12-25T04:01:45.601Z,4.10
2018-12-25T04:06:41.063Z,4.10
2018-12-25T04:11:36.537Z,4.10
2018-12-25T04:16:32.073Z,4.10
2018-12-25T04:21:27.552Z,4.10
2018-12-25T04:26:23.099Z,4.20
2018-12-25T04:31:18.843Z,4.20
2018-12-25T04:36:14.393Z,4.20
2018-12-25T04:41:09.990Z,4.20
2018-12-25T04:46:05.704Z,4.20
2018-12-25T04:51:01.175Z,4.20
2018-12-25T04:55:56.667Z,4.20
2018-12-25T05:00:52.274Z,4.20
2018-12-25T05:05:47.829Z,4.20
2018-12-25T05:10:43.675Z,4.30
2018-12-25T05:15:39.248Z,4.30
2018-12-25T05:20:38.027Z,4.40
2018-12-25T05:25:32.051Z,4.40
2018-12-25T05:30:27.664Z,4.50
2018-12-25T05:35:23.248Z,4.50
2018-12-25T05:40:18.951Z,4.50
2018-12-25T05:45:14.506Z,4.50
2018-12-25T05:50:10.016Z,4.40
2018-12-25T05:55:05.653Z,4.40
2018-12-25T06:00:01.149Z,4.40
2018-12-25T06:04:56.683Z,4.40
2018-12-25T06:09:52.321Z,4.50
2018-12-25T06:14:47.764Z,4.50
2018-12-25T06:19:43.248Z,4.50
2018-12-25T06:24:38.740Z,4.50
2018-12-25T06:29:34.189Z,4.50
2018-12-25T06:34:29.652Z,4.60
2018-12-25T06:39:25.164Z,4.70
2018-12-25T06:44:20.655Z,4.70
2018-12-25T06:49:16.148Z,4.80
2018-12-25T06:54:11.613Z,4.80
2018-12-25T06:59:07.076Z,4.80
2018-12-25T07:04:02.548Z,4.80
2018-12-25T07:08:58.033Z,4.80
2018-12-25T07:13:53.511Z,4.70
2018-12-25T07:18:51.929Z,4.70
2018-12-25T07:23:47.410Z,4.70
2018-12-25T07:28:42.852Z,4.70
2018-12-25T07:33:38.317Z,4.80
2018-12-25T07:38:33.818Z,4.80
2018-12-25T07:43:29.330Z,4.80
2018-12-25T07:48:24.808Z,4.80
2018-12-25T07:53:20.334Z,4.80
2018-12-25T07:58:15.819Z,4.80
2018-12-25T08:03:11.292Z,4.90
2018-12-25T08:08:06.834Z,4.90
2018-12-25T08:13:02.401Z,4.80
2018-12-25T08:17:57.873Z,4.80
2018-12-25T08:22:53.376Z,4.80
2018-12-25T08:27:48.850Z,4.90
2018-12-25T08:32:44.335Z,5.00
2018-12-25T08:37:39.847Z,5.00
2018-12-25T08:42:35.616Z,5.10
2018-12-25T08:47:31.111Z,5.20
2018-12-25T08:52:26.664Z,5.20
2018-12-25T08:57:22.176Z,5.40
2018-12-25T09:02:17.800Z,5.60
2018-12-25T09:07:13.390Z,5.80
2018-12-25T09:12:08.860Z,5.90
2018-12-25T09:17:04.408Z,6.20
2018-12-25T09:21:59.877Z,6.50
2018-12-25T09:26:55.373Z,6.90
2018-12-25T09:31:51.043Z,7.10
2018-12-25T09:36:46.546Z,7.10
2018-12-25T09:41:42.054Z,7.10
2018-12-25T09:46:37.578Z,7.20
2018-12-25T09:51:32.993Z,7.20
2018-12-25T09:56:28.487Z,7.30
2018-12-25T10:01:23.962Z,7.40
2018-12-25T10:06:19.498Z,7.70
2018-12-25T10:11:15.058Z,8.00
2018-12-25T10:16:10.527Z,8.20
2018-12-25T10:21:06.325Z,8.50
2018-12-25T10:26:01.844Z,8.70
2018-12-25T10:30:57.530Z,8.80
2018-12-25T10:35:53.052Z,8.80
2018-12-25T10:40:48.528Z,8.80
2018-12-25T10:45:44.014Z,8.80
2018-12-25T10:50:39.484Z,8.90
2018-12-25T10:55:34.996Z,8.90
2018-12-25T11:00:39.132Z,9.00
2018-12-25T11:05:34.720Z,8.90
2018-12-25T11:10:30.233Z,8.90
2018-12-25T11:15:25.763Z,9.00
2018-12-25T11:20:21.258Z,9.00
2018-12-25T11:25:16.780Z,9.00
2018-12-25T11:30:12.287Z,9.10
2018-12-25T11:35:08.192Z,9.20
2018-12-25T11:40:03.878Z,9.10
2018-12-25T11:44:59.354Z,8.90
2018-12-25T11:49:54.978Z,8.80
2018-12-25T11:54:50.470Z,8.70
2018-12-25T11:59:46.005Z,8.60
2018-12-25T12:04:41.714Z,8.60
2018-12-25T12:09:37.635Z,8.50
2018-12-25T12:14:33.124Z,8.60
2018-12-25T12:19:28.635Z,8.60
2018-12-25T12:24:24.152Z,8.60
2018-12-25T12:29:19.630Z,8.60
2018-12-25T12:34:15.187Z,8.70
2018-12-25T12:39:10.724Z,8.70
2018-12-25T12:44:06.191Z,8.70
2018-12-25T12:49:01.671Z,8.50
2018-12-25T12:53:57.107Z,8.40
2018-12-25T12:58:52.637Z,8.40
2018-12-25T13:03:48.103Z,8.40
2018-12-25T13:08:43.593Z,8.30
2018-12-25T13:13:39.097Z,8.40
2018-12-25T13:18:34.579Z,8.30
2018-12-25T13:23:30.173Z,8.30
2018-12-25T13:28:25.878Z,8.20
2018-12-25T13:33:21.446Z,7.90
2018-12-25T13:38:17.016Z,7.70
2018-12-25T13:43:14.274Z,7.70
2018-12-25T13:48:09.767Z,7.80
2018-12-25T13:53:05.312Z,7.90
2018-12-25T13:58:00.797Z,7.90
2018-12-25T14:02:56.301Z,7.80
2018-12-25T14:07:51.774Z,7.80
2018-12-25T14:12:47.257Z,7.70
2018-12-25T14:17:42.929Z,7.50
2018-12-25T14:22:38.391Z,7.30
2018-12-25T14:27:33.860Z,7.10
2018-12-25T14:32:29.330Z,6.80
2018-12-25T14:37:24.840Z,6.70
2018-12-25T14:42:20.369Z,6.50
2018-12-25T14:47:15.874Z,6.50
2018-12-25T14:52:11.332Z,6.50
2018-12-25T14:57:06.799Z,6.40
2018-12-25T15:02:02.289Z,6.30
2018-12-25T15:06:57.773Z,6.30
2018-12-25T15:11:53.227Z,6.20
2018-12-25T15:16:48.713Z,6.10
2018-12-25T15:21:44.213Z,6.10
2018-12-25T15:26:39.682Z,6.10
2018-12-25T15:31:35.186Z,6.10
2018-12-25T15:36:30.688Z,6.00
2018-12-25T15:41:26.169Z,6.00
2018-12-25T15:46:21.694Z,5.90
2018-12-25T15:51:17.166Z,5.70
2018-12-25T15:56:12.670Z,5.50
2018-12-25T16:01:08.144Z,5.30
2018-12-25T16:06:03.590Z,5.20
2018-12-25T16:10:59.039Z,5.20
2018-12-25T16:15:54.508Z,5.10
2018-12-25T16:20:50.007Z,5.00
2018-12-25T16:25:45.514Z,4.80
2018-12-25T16:30:41.004Z,4.70
2018-12-25T16:35:36.490Z,4.60
2018-12-25T16:40:31.955Z,4.50
2018-12-25T16:45:27.472Z,4.40
2018-12-25T16:50:22.975Z,4.30
2018-12-25T16:55:18.475Z,4.30
2018-12-25T17:00:13.931Z,4.40
2018-12-25T17:05:09.458Z,4.40
2018-12-25T17:10:06.346Z,4.50
2018-12-25T17:15:01.836Z,4.60
2018-12-25T17:19:57.322Z,4.60
2018-12-25T17:24:52.830Z,4.60
2018-12-25T17:29:48.375Z,4.50
2018-12-25T17:34:43.882Z,4.40
2018-12-25T17:39:39.430Z,4.40
2018-12-25T17:44:34.905Z,4.40
2018-12-25T17:49:30.445Z,4.50
2018-12-25T17:54:25.984Z,4.50
2018-12-25T17:59:21.455Z,4.60
2018-12-25T18:04:16.927Z,4.60
2018-12-25T18:09:12.395Z,4.60
2018-12-25T18:14:07.859Z,4.60
2018-12-25T18:19:03.381Z,4.70
2018-12-25T18:23:58.818Z,4.80
2018-12-25T18:28:54.337Z,4.80
2018-12-25T18:33:49.795Z,4.80
2018-12-25T18:38:45.252Z,4.70
2018-12-25T18:43:40.740Z,4.50
2018-12-25T18:48:36.295Z,4.30
2018-12-25T18:53:31.760Z,4.10
2018-12-25T18:58:27.267Z,4.00
2018-12-25T19:03:22.725Z,3.80
2018-12-25T19:08:18.209Z,3.60
2018-12-25T19:13:13.681Z,3.40
2018-12-25T19:18:12.799Z,3.20
2018-12-25T19:23:08.263Z,3.00
2018-12-25T19:28:03.745Z,2.90
2018-12-25T19:32:59.207Z,2.70
2018-12-25T19:37:54.713Z,2.60
2018-12-25T19:42:50.232Z,2.50
2018-12-25T19:47:45.694Z,2.40
2018-12-25T19:52:41.178Z,2.40
2018-12-25T19:57:36.609Z,2.40
2018-12-25T20:02:32.419Z,2.40
2018-12-25T20:08:30.412Z,2.30
2018-12-25T20:14:21.773Z,2.20
2018-12-25T20:20:05.955Z,2.10
2018-12-25T20:25:39.236Z,2.00
2018-12-25T20:32:01.916Z,2.00
2018-12-25T20:38:03.943Z,2.10
2018-12-25T20:44:14.891Z,2.00
2018-12-25T20:50:04.224Z,1.80
2018-12-25T20:56:18.671Z,1.60
2018-12-25T21:02:00.047Z,1.50
2018-12-25T21:07:49.407Z,1.30
2018-12-25T21:13:58.628Z,1.30
2018-12-25T21:19:50.259Z,1.20
2018-12-25T21:25:39.331Z,1.20
2018-12-25T21:30:34.816Z,1.10
2018-12-25T21:35:30.401Z,1.10
2018-12-25T21:40:25.853Z,1.00
2018-12-25T21:45:21.339Z,1.00
2018-12-25T21:50:16.822Z,0.90
2018-12-25T21:55:18.631Z,0.80
2018-12-25T22:00:13.780Z,0.80
2018-12-25T22:05:09.252Z,0.70
2018-12-25T22:10:05.174Z,0.60
2018-12-25T22:15:00.649Z,0.60
2018-12-25T22:19:56.105Z,0.60
2018-12-25T22:24:51.595Z,0.60
2018-12-25T22:29:47.074Z,0.50
2018-12-25T22:34:42.555Z,0.50
2018-12-25T22:39:38.027Z,0.50
2018-12-25T22:44:33.500Z,0.40
2018-12-25T22:49:28.992Z,0.40
2018-12-25T22:54:24.467Z,0.40
2018-12-25T22:59:20.188Z,0.40
2018-12-25T23:04:15.699Z,0.50
2018-12-25T23:09:11.207Z,0.60
2018-12-25T23:14:06.693Z,0.60
2018-12-25T23:19:02.216Z,0.60
2018-12-25T23:23:57.709Z,0.60
2018-12-25T23:28:53.355Z,0.60
2018-12-25T23:33:48.879Z,0.60
2018-12-25T23:38:44.457Z,0.50
2018-12-25T23:43:39.946Z,0.40
2018-12-25T23:48:35.409Z,0.40
2018-12-25T23:53:31.199Z,0.40
2018-12-25T23:58:26.817Z,0.30
